createdAt,value
2022-09-04T00:00:34.232Z,16.30
2022-09-04T00:03:19.565Z,16.30
2022-09-04T00:05:53.917Z,16.30
2022-09-04T00:08:40.473Z,16.20
2022-09-04T00:11:21.739Z,16.20
2022-09-04T00:13:58.360Z,16.20
2022-09-04T00:16:36.632Z,16.20
2022-09-04T00:19:15.041Z,16.20
2022-09-04T00:21:51.720Z,16.10
2022-09-04T00:24:26.112Z,16.10
2022-09-04T00:27:04.423Z,16.10
2022-09-04T00:29:43.720Z,16.10
2022-09-04T00:32:21.829Z,16.10
2022-09-04T00:35:06.760Z,16.10
2022-09-04T00:37:43.410Z,16.10
2022-09-04T00:40:21.944Z,16.00
2022-09-04T00:43:31.068Z,16.00
2022-09-04T00:46:31.508Z,15.90
2022-09-04T00:49:31.300Z,15.90
2022-09-04T00:52:12.524Z,15.80
2022-09-04T00:55:01.036Z,15.80
2022-09-04T00:58:02.153Z,15.80
2022-09-04T01:00:30.819Z,15.70
2022-09-04T01:03:48.453Z,15.70
2022-09-04T01:06:35.993Z,15.60
2022-09-04T01:09:32.314Z,15.60
2022-09-04T01:12:17.611Z,15.60
2022-09-04T01:14:55.938Z,15.60
2022-09-04T01:17:34.872Z,15.60
2022-09-04T01:20:15.663Z,15.60
2022-09-04T01:23:02.156Z,15.60
2022-09-04T01:25:56.808Z,15.60
2022-09-04T01:28:36.072Z,15.50
2022-09-04T01:31:23.786Z,15.50
2022-09-04T01:34:11.046Z,15.50
2022-09-04T01:36:50.630Z,15.50
2022-09-04T01:39:23.585Z,15.50
2022-09-04T01:42:04.231Z,15.50
2022-09-04T01:44:34.109Z,15.50
2022-09-04T01:47:15.182Z,15.50
2022-09-04T01:49:51.393Z,15.50
2022-09-04T01:52:42.872Z,15.50
2022-09-04T01:55:25.032Z,15.60
2022-09-04T01:58:16.014Z,15.60
2022-09-04T02:00:59.914Z,15.60
2022-09-04T02:03:39.515Z,15.80
2022-09-04T02:06:22.700Z,15.80
2022-09-04T02:09:25.637Z,15.80
2022-09-04T02:12:12.231Z,15.90
2022-09-04T02:14:57.098Z,16.00
2022-09-04T02:17:39.324Z,16.00
2022-09-04T02:20:22.673Z,15.90
2022-09-04T02:23:05.162Z,16.00
2022-09-04T02:25:42.344Z,15.90
2022-09-04T02:28:34.507Z,15.90
2022-09-04T02:31:17.909Z,15.90
2022-09-04T02:33:55.144Z,15.90
2022-09-04T02:36:31.306Z,16.00
2022-09-04T02:39:12.973Z,16.00
2022-09-04T02:41:54.707Z,16.00
2022-09-04T02:44:38.494Z,16.00
2022-09-04T02:47:21.901Z,16.00
2022-09-04T02:50:03.449Z,16.10
2022-09-04T02:52:56.960Z,16.10
2022-09-04T02:55:46.669Z,16.10
2022-09-04T02:58:25.890Z,16.10
2022-09-04T03:01:04.203Z,16.10
2022-09-04T03:03:46.139Z,16.10
2022-09-04T03:06:23.794Z,16.10
2022-09-04T03:09:01.135Z,16.20
2022-09-04T03:11:38.746Z,16.20
2022-09-04T03:14:15.009Z,17.80
2022-09-04T03:16:50.509Z,16.20
2022-09-04T03:19:29.113Z,16.20
2022-09-04T03:22:05.320Z,16.30
2022-09-04T03:25:00.844Z,16.30
2022-09-04T03:27:31.652Z,16.30
2022-09-04T03:30:05.888Z,16.30
2022-09-04T03:32:46.255Z,16.40
2022-09-04T03:35:26.562Z,18.00
2022-09-04T03:38:13.535Z,16.40
2022-09-04T03:40:46.368Z,16.30
2022-09-04T03:43:36.981Z,16.30
2022-09-04T03:46:22.305Z,16.30
2022-09-04T03:49:09.883Z,16.30
2022-09-04T03:51:56.262Z,16.30
2022-09-04T03:54:45.336Z,16.40
2022-09-04T03:57:32.037Z,16.30
2022-09-04T04:00:09.387Z,16.40
2022-09-04T04:03:18.409Z,16.30
2022-09-04T04:06:01.316Z,16.40
2022-09-04T04:09:11.910Z,16.30
2022-09-04T04:12:05.171Z,16.30
2022-09-04T04:14:52.886Z,16.30
2022-09-04T04:17:48.346Z,16.40
2022-09-04T04:20:34.883Z,16.40
2022-09-04T04:23:56.848Z,16.40
2022-09-04T04:26:42.640Z,16.40
2022-09-04T04:29:39.690Z,16.40
2022-09-04T04:32:33.708Z,16.40
2022-09-04T04:35:21.375Z,16.40
2022-09-04T04:38:14.002Z,16.40
2022-09-04T04:41:06.267Z,16.40
2022-09-04T04:43:52.409Z,16.40
2022-09-04T04:46:35.196Z,16.40
2022-09-04T04:49:49.121Z,16.50
2022-09-04T04:52:30.265Z,16.50
2022-09-04T04:55:17.703Z,16.50
2022-09-04T04:58:02.467Z,16.50
2022-09-04T05:00:41.751Z,16.50
2022-09-04T05:03:20.599Z,16.50
2022-09-04T05:06:02.131Z,16.50
2022-09-04T05:08:47.815Z,16.50
2022-09-04T05:11:25.823Z,16.50
2022-09-04T05:14:08.002Z,16.50
2022-09-04T05:16:54.879Z,16.50
2022-09-04T05:19:33.625Z,16.50
2022-09-04T05:22:13.495Z,16.50
2022-09-04T05:24:56.413Z,16.60
2022-09-04T05:27:49.155Z,16.60
2022-09-04T05:30:24.272Z,16.70
2022-09-04T05:33:02.142Z,16.70
2022-09-04T05:35:43.345Z,16.70
2022-09-04T05:38:19.156Z,16.70
2022-09-04T05:41:05.295Z,16.70
2022-09-04T05:44:01.571Z,16.80
2022-09-04T05:46:51.812Z,16.80
2022-09-04T05:49:37.336Z,16.90
2022-09-04T05:52:50.607Z,16.90
2022-09-04T05:56:00.567Z,16.90
2022-09-04T05:58:49.579Z,17.00
2022-09-04T06:01:40.070Z,17.10
2022-09-04T06:04:42.061Z,17.20
2022-09-04T06:07:20.921Z,17.10
2022-09-04T06:10:04.507Z,17.20
2022-09-04T06:13:09.243Z,17.20
2022-09-04T06:15:52.770Z,17.30
2022-09-04T06:18:49.606Z,17.50
2022-09-04T06:21:49.630Z,17.60
2022-09-04T06:24:58.457Z,17.70
2022-09-04T06:27:48.584Z,17.80
2022-09-04T06:30:18.811Z,17.80
2022-09-04T06:33:36.112Z,17.80
2022-09-04T06:36:35.083Z,17.80
2022-09-04T06:39:23.801Z,17.90
2022-09-04T06:42:11.855Z,18.00
2022-09-04T06:44:59.740Z,18.00
2022-09-04T06:47:43.360Z,18.10
2022-09-04T06:50:27.296Z,18.20
2022-09-04T06:53:18.254Z,18.20
2022-09-04T06:56:04.385Z,18.30
2022-09-04T06:59:10.088Z,18.30
2022-09-04T07:01:52.300Z,18.70
2022-09-04T07:04:36.020Z,18.50
2022-09-04T07:07:19.052Z,18.50
2022-09-04T07:09:59.919Z,18.50
2022-09-04T07:13:08.356Z,18.50
2022-09-04T07:16:13.622Z,18.60
2022-09-04T07:19:08.691Z,18.60
2022-09-04T07:21:49.814Z,18.60
2022-09-04T07:24:49.248Z,18.70
2022-09-04T07:27:36.309Z,18.80
2022-09-04T07:30:09.260Z,18.80
2022-09-04T07:32:44.156Z,18.90
2022-09-04T07:35:22.069Z,18.90
2022-09-04T07:37:58.756Z,18.90
2022-09-04T07:40:33.797Z,19.00
2022-09-04T07:43:21.409Z,19.10
2022-09-04T07:46:01.037Z,19.10
2022-09-04T07:48:37.618Z,19.10
2022-09-04T07:51:11.683Z,19.00
2022-09-04T07:54:08.561Z,18.90
2022-09-04T07:56:59.372Z,19.00
2022-09-04T08:00:03.927Z,19.00
2022-09-04T08:03:07.039Z,19.20
2022-09-04T08:05:44.952Z,19.30
2022-09-04T08:08:59.387Z,19.30
2022-09-04T08:12:09.117Z,19.40
2022-09-04T08:14:55.350Z,19.50
2022-09-04T08:18:03.948Z,19.60
2022-09-04T08:20:44.099Z,19.70
2022-09-04T08:23:47.268Z,19.70
2022-09-04T08:26:27.224Z,19.70
2022-09-04T08:29:23.236Z,19.70
2022-09-04T08:32:10.851Z,19.90
2022-09-04T08:35:04.023Z,20.00
2022-09-04T08:37:49.437Z,20.20
2022-09-04T08:40:55.091Z,20.40
2022-09-04T08:43:36.004Z,20.70
2022-09-04T08:47:14.119Z,21.10
2022-09-04T08:50:38.083Z,21.60
2022-09-04T08:54:02.407Z,22.30
2022-09-04T08:56:43.104Z,22.60
2022-09-04T08:59:58.773Z,22.70
2022-09-04T09:03:19.426Z,22.90
2022-09-04T09:06:29.915Z,22.90
2022-09-04T09:09:49.948Z,23.00
2022-09-04T09:13:07.825Z,23.00
2022-09-04T09:16:22.149Z,23.10
2022-09-04T09:19:39.717Z,23.20
2022-09-04T09:22:37.598Z,23.50
2022-09-04T09:25:20.924Z,23.90
2022-09-04T09:28:43.880Z,24.30
2022-09-04T09:32:09.935Z,24.60
2022-09-04T09:35:26.737Z,25.20
2022-09-04T09:38:38.875Z,25.80
2022-09-04T09:41:55.411Z,26.10
2022-09-04T09:45:15.529Z,26.60
2022-09-04T09:48:47.861Z,27.10
2022-09-04T09:52:01.149Z,27.30
2022-09-04T09:55:08.008Z,27.40
2022-09-04T09:58:23.987Z,27.70
2022-09-04T10:01:05.346Z,28.00
2022-09-04T10:04:09.951Z,28.40
2022-09-04T10:07:28.418Z,28.50
2022-09-04T10:10:41.613Z,28.60
2022-09-04T10:13:53.319Z,28.60
2022-09-04T10:17:14.258Z,28.80
2022-09-04T10:20:28.780Z,29.10
2022-09-04T10:23:38.408Z,29.20
2022-09-04T10:26:50.775Z,29.10
2022-09-04T10:29:50.687Z,29.60
2022-09-04T10:33:19.980Z,29.80
2022-09-04T10:36:06.474Z,29.90
2022-09-04T10:39:03.381Z,29.90
2022-09-04T10:41:57.380Z,29.90
2022-09-04T10:44:54.667Z,30.10
2022-09-04T10:48:15.325Z,30.10
2022-09-04T10:51:35.293Z,30.50
2022-09-04T10:54:44.998Z,30.50
2022-09-04T10:57:42.876Z,30.70
2022-09-04T11:00:14.520Z,30.90
2022-09-04T11:03:40.160Z,31.00
2022-09-04T11:06:58.312Z,30.90
2022-09-04T11:09:58.860Z,30.90
2022-09-04T11:13:13.137Z,30.90
2022-09-04T11:16:11.236Z,29.50
2022-09-04T11:19:29.765Z,31.00
2022-09-04T11:22:42.967Z,31.20
2022-09-04T11:26:20.839Z,31.40
2022-09-04T11:29:19.197Z,30.70
2022-09-04T11:32:16.792Z,30.60
2022-09-04T11:35:36.187Z,31.00
2022-09-04T11:38:28.742Z,31.20
2022-09-04T11:41:50.824Z,31.30
2022-09-04T11:44:50.989Z,31.50
2022-09-04T11:47:49.129Z,31.50
2022-09-04T11:50:34.676Z,31.70
2022-09-04T11:53:37.278Z,31.80
2022-09-04T11:56:45.836Z,32.20
2022-09-04T11:59:51.771Z,32.70
2022-09-04T12:03:01.059Z,32.70
2022-09-04T12:05:51.198Z,32.80
2022-09-04T12:09:11.648Z,32.90
2022-09-04T12:12:12.769Z,33.00
2022-09-04T12:15:26.087Z,32.90
2022-09-04T12:18:52.035Z,33.10
2022-09-04T12:21:53.027Z,33.40
2022-09-04T12:25:06.304Z,34.10
2022-09-04T12:28:15.765Z,34.40
2022-09-04T12:31:06.622Z,34.40
2022-09-04T12:34:14.689Z,34.30
2022-09-04T12:37:23.760Z,34.30
2022-09-04T12:40:32.801Z,33.90
2022-09-04T12:43:16.477Z,33.70
2022-09-04T12:45:57.065Z,33.70
2022-09-04T12:48:35.647Z,33.70
2022-09-04T12:51:13.376Z,33.90
2022-09-04T12:54:24.912Z,34.20
2022-09-04T12:57:08.817Z,34.40
2022-09-04T12:59:55.676Z,34.30
2022-09-04T13:02:35.663Z,34.30
2022-09-04T13:05:25.540Z,34.30
2022-09-04T13:08:00.404Z,34.60
2022-09-04T13:10:37.502Z,34.60
2022-09-04T13:13:17.951Z,34.80
2022-09-04T13:16:00.379Z,35.80
2022-09-04T13:18:48.770Z,35.20
2022-09-04T13:21:35.832Z,35.10
2022-09-04T13:24:20.869Z,35.20
2022-09-04T13:27:16.571Z,35.50
2022-09-04T13:30:03.970Z,35.60
2022-09-04T13:33:13.711Z,35.70
2022-09-04T13:36:04.419Z,35.50
2022-09-04T13:39:21.527Z,35.20
2022-09-04T13:42:52.363Z,35.20
2022-09-04T13:45:26.419Z,34.70
2022-09-04T13:48:01.049Z,34.60
2022-09-04T13:50:36.721Z,34.80
2022-09-04T13:53:16.594Z,34.80
2022-09-04T13:55:51.799Z,34.00
2022-09-04T13:58:24.844Z,33.70
2022-09-04T14:01:00.326Z,33.80
2022-09-04T14:03:38.011Z,33.80
2022-09-04T14:06:11.094Z,33.90
2022-09-04T14:08:43.185Z,34.30
2022-09-04T14:11:50.685Z,34.30
2022-09-04T14:15:10.694Z,34.20
2022-09-04T14:17:49.555Z,34.00
2022-09-04T14:20:23.109Z,34.00
2022-09-04T14:23:05.746Z,34.10
2022-09-04T14:25:48.616Z,34.20
2022-09-04T14:28:24.440Z,34.30
2022-09-04T14:31:10.638Z,34.30
2022-09-04T14:33:55.860Z,34.40
2022-09-04T14:36:35.574Z,34.20
2022-09-04T14:39:21.186Z,34.20
2022-09-04T14:42:17.920Z,34.20
2022-09-04T14:45:16.264Z,33.90
2022-09-04T14:47:52.074Z,33.60
2022-09-04T14:50:23.432Z,33.60
2022-09-04T14:52:57.728Z,33.20
2022-09-04T14:55:29.952Z,33.20
2022-09-04T14:58:10.146Z,33.40
2022-09-04T15:01:01.060Z,33.50
2022-09-04T15:03:36.834Z,33.60
2022-09-04T15:06:16.135Z,33.60
2022-09-04T15:09:26.935Z,33.40
2022-09-04T15:14:50.511Z,33.10
2022-09-04T15:17:28.198Z,33.10
2022-09-04T15:20:03.839Z,33.10
2022-09-04T15:22:40.496Z,32.90
2022-09-04T15:25:12.749Z,32.90
2022-09-04T15:27:51.984Z,33.00
2022-09-04T15:30:24.592Z,32.90
2022-09-04T15:33:07.047Z,32.90
2022-09-04T15:35:37.292Z,32.60
2022-09-04T15:38:11.223Z,32.40
2022-09-04T15:41:05.826Z,32.30
2022-09-04T15:43:41.167Z,32.00
2022-09-04T15:46:23.240Z,31.90
2022-09-04T15:48:58.731Z,31.70
2022-09-04T15:51:40.207Z,31.50
2022-09-04T15:54:27.004Z,31.30
2022-09-04T15:57:11.036Z,31.20
2022-09-04T15:59:52.166Z,31.10
2022-09-04T16:02:36.532Z,30.90
2022-09-04T16:05:19.499Z,30.60
2022-09-04T16:08:03.097Z,30.60
2022-09-04T16:10:47.640Z,30.70
2022-09-04T16:13:36.763Z,30.80
2022-09-04T16:16:14.783Z,30.80
2022-09-04T16:19:02.649Z,30.90
2022-09-04T16:21:45.317Z,31.00
2022-09-04T16:24:18.229Z,31.20
2022-09-04T16:26:52.071Z,31.20
2022-09-04T16:29:36.593Z,31.10
2022-09-04T16:32:12.190Z,30.90
2022-09-04T16:34:49.861Z,30.40
2022-09-04T16:37:25.916Z,30.10
2022-09-04T16:40:21.211Z,29.40
2022-09-04T16:42:52.043Z,29.70
2022-09-04T16:45:25.756Z,29.20
2022-09-04T16:48:00.418Z,29.20
2022-09-04T16:50:52.421Z,29.30
2022-09-04T16:53:33.360Z,29.30
2022-09-04T16:56:07.432Z,29.40
2022-09-04T16:58:52.652Z,29.50
2022-09-04T17:01:29.432Z,29.60
2022-09-04T17:04:30.748Z,29.60
2022-09-04T17:07:13.109Z,29.50
2022-09-04T17:10:01.613Z,29.40
2022-09-04T17:12:49.509Z,29.30
2022-09-04T17:15:29.636Z,29.20
2022-09-04T17:22:18.816Z,28.70
2022-09-04T17:29:03.640Z,28.40
2022-09-04T17:29:12.868Z,28.10
2022-09-04T17:29:33.736Z,27.90
2022-09-04T17:33:36.883Z,27.70
2022-09-04T17:40:36.705Z,27.40
2022-09-04T17:40:46.823Z,27.10
2022-09-04T17:41:36.106Z,26.80
2022-09-04T17:44:31.798Z,26.60
2022-09-04T17:47:16.899Z,26.40
2022-09-04T17:49:50.247Z,26.30
2022-09-04T17:52:26.946Z,26.10
2022-09-04T17:55:03.160Z,26.00
2022-09-04T17:57:52.696Z,25.90
2022-09-04T18:00:25.058Z,25.70
2022-09-04T18:02:59.033Z,25.70
2022-09-04T18:05:36.389Z,25.50
2022-09-04T18:08:21.363Z,25.40
2022-09-04T18:10:56.045Z,25.40
2022-09-04T18:13:41.124Z,25.20
2022-09-04T18:16:26.799Z,25.20
2022-09-04T18:18:59.329Z,25.00
2022-09-04T18:21:37.529Z,25.00
2022-09-04T18:24:08.211Z,24.80
2022-09-04T18:26:42.105Z,24.70
2022-09-04T18:30:57.198Z,24.60
2022-09-04T18:37:07.617Z,24.50
2022-09-04T18:37:18.981Z,24.40
2022-09-04T18:38:53.712Z,24.30
2022-09-04T18:50:25.755Z,24.20
2022-09-04T18:50:31.761Z,23.90
2022-09-04T18:50:52.509Z,24.00
2022-09-04T18:51:19.574Z,23.80
2022-09-04T18:53:53.898Z,23.70
2022-09-04T18:56:29.337Z,23.60
2022-09-04T18:59:06.166Z,23.60
2022-09-04T19:01:45.530Z,23.50
2022-09-04T19:04:36.007Z,23.40
2022-09-04T19:07:10.375Z,23.40
2022-09-04T19:10:07.207Z,23.30
2022-09-04T19:12:47.690Z,23.20
2022-09-04T19:15:45.090Z,23.10
2022-09-04T19:18:27.376Z,23.00
2022-09-04T19:21:23.301Z,22.90
2022-09-04T19:23:58.903Z,22.90
2022-09-04T19:26:37.889Z,22.80
2022-09-04T19:29:19.384Z,22.70
2022-09-04T19:31:55.150Z,22.60
2022-09-04T19:34:36.552Z,22.50
2022-09-04T19:37:26.044Z,22.50
2022-09-04T19:45:56.907Z,22.40
2022-09-04T19:46:08.365Z,22.30
2022-09-04T19:46:25.985Z,22.30
2022-09-04T19:50:46.168Z,22.10
2022-09-04T19:53:32.174Z,22.00
2022-09-04T19:55:24.433Z,21.90
2022-09-04T19:58:06.649Z,21.80
2022-09-04T20:00:43.476Z,21.80
2022-09-04T20:03:30.293Z,21.70
2022-09-04T20:06:20.909Z,21.60
2022-09-04T20:09:01.716Z,21.60
2022-09-04T20:11:36.588Z,21.50
2022-09-04T20:14:16.152Z,21.40
2022-09-04T20:16:58.633Z,21.30
2022-09-04T20:19:37.377Z,21.30
2022-09-04T20:22:14.747Z,21.20
2022-09-04T20:25:01.496Z,21.20
2022-09-04T20:27:37.800Z,21.10
2022-09-04T20:30:12.681Z,21.10
2022-09-04T20:32:56.311Z,21.10
2022-09-04T20:35:35.363Z,21.00
2022-09-04T20:38:22.931Z,20.90
2022-09-04T20:40:59.566Z,20.90
2022-09-04T20:43:45.504Z,20.80
2022-09-04T20:51:15.517Z,20.80
2022-09-04T20:52:49.298Z,20.70
2022-09-04T20:52:58.421Z,20.60
2022-09-04T20:55:35.996Z,20.60
2022-09-04T21:03:10.523Z,20.60
2022-09-04T21:03:20.989Z,20.50
2022-09-04T21:04:41.879Z,20.40
2022-09-04T21:07:28.009Z,20.30
2022-09-04T21:10:10.243Z,20.20
2022-09-04T21:12:45.123Z,20.30
2022-09-04T21:15:29.356Z,20.20
2022-09-04T21:18:40.175Z,20.10
2022-09-04T21:21:37.424Z,20.10
2022-09-04T21:24:37.591Z,20.00
2022-09-04T21:27:35.872Z,20.00
2022-09-04T21:30:11.031Z,19.90
2022-09-04T21:33:27.571Z,19.90
2022-09-04T21:36:26.585Z,19.90
2022-09-04T21:39:45.225Z,19.80
2022-09-04T21:42:48.245Z,19.80
2022-09-04T21:45:53.655Z,19.80
2022-09-04T21:48:46.880Z,19.80
2022-09-04T21:51:52.201Z,19.80
2022-09-04T21:57:25.937Z,19.70
2022-09-04T22:02:38.283Z,19.60
2022-09-04T22:02:40.458Z,19.70
2022-09-04T22:04:56.719Z,19.60
2022-09-04T22:11:32.734Z,19.60
2022-09-04T22:13:38.522Z,19.60
2022-09-04T22:13:51.196Z,19.60
2022-09-04T22:16:53.115Z,19.60
2022-09-04T22:20:14.379Z,19.50
2022-09-04T22:23:18.527Z,19.50
2022-09-04T22:26:11.293Z,19.50
2022-09-04T22:29:13.015Z,19.30
2022-09-04T22:32:19.969Z,19.30
2022-09-04T22:35:42.187Z,19.20
2022-09-04T22:38:53.985Z,19.10
2022-09-04T22:42:05.371Z,19.10
2022-09-04T22:44:56.656Z,19.00
2022-09-04T22:47:55.857Z,18.90
2022-09-04T22:50:57.608Z,18.90
2022-09-04T22:54:03.368Z,18.90
2022-09-04T22:56:53.059Z,18.90
2022-09-04T23:00:13.795Z,18.90
2022-09-04T23:03:14.564Z,18.90
2022-09-04T23:11:00.386Z,18.90
2022-09-04T23:13:54.384Z,18.60
2022-09-04T23:14:02.933Z,18.70
2022-09-04T23:16:41.598Z,18.60
2022-09-04T23:23:48.898Z,18.50
2022-09-04T23:26:47.560Z,18.40
2022-09-04T23:26:49.221Z,18.40
2022-09-04T23:29:34.673Z,18.40
2022-09-04T23:32:47.939Z,18.30
2022-09-04T23:35:32.129Z,18.30
2022-09-04T23:38:42.066Z,18.30
2022-09-04T23:41:26.261Z,18.30
2022-09-04T23:44:39.795Z,18.20
2022-09-04T23:47:54.188Z,18.20
2022-09-04T23:50:37.724Z,18.20
2022-09-04T23:53:22.741Z,18.20
2022-09-04T23:56:07.207Z,18.20
2022-09-04T23:59:11.872Z,18.20
